Time;durP1;ratioP1;P1;durP2;ratioP2;P2;SDS_P1;SDS_P2;PMS_P1;PMS_P2;Temp;Humidity;BMP_temperature;BMP_pressure;BME280_temperature;BME280_humidity;BME280_pressure;Samples;Min_cycle;Max_cycle;Signal;HPM_P1;HPM_P2
2021/10/27 00:02:20;;;;;;;0.00;0.00;;;5.80;52.90;;;;;;5052773;28;20025;-73
2021/10/27 00:04:46;;;;;;;0.00;0.00;;;5.80;53.00;;;;;;5053727;28;20025;-73
2021/10/27 00:07:14;;;;;;;0.00;0.00;;;5.80;53.10;;;;;;5053559;28;20103;-73
2021/10/27 00:09:40;;;;;;;0.00;0.00;;;5.80;53.20;;;;;;5053809;28;20434;-74
2021/10/27 00:12:07;;;;;;;0.00;0.00;;;5.80;53.20;;;;;;5053612;28;20056;-73
2021/10/27 00:14:33;;;;;;;0.00;0.00;;;5.80;53.30;;;;;;5053462;28;20413;-74
2021/10/27 00:16:58;;;;;;;0.00;0.00;;;5.80;53.40;;;;;;5054072;28;20028;-75
2021/10/27 00:19:24;;;;;;;0.00;0.00;;;5.70;53.30;;;;;;5053196;28;20037;-74
2021/10/27 00:21:50;;;;;;;0.00;0.00;;;5.70;53.50;;;;;;5053316;28;20022;-74
2021/10/27 00:24:15;;;;;;;0.00;0.00;;;5.60;53.50;;;;;;5052049;28;20358;-74
2021/10/27 00:26:41;;;;;;;0.00;0.00;;;5.60;53.60;;;;;;5053018;28;20025;-74
2021/10/27 00:29:07;;;;;;;0.00;0.00;;;5.60;53.60;;;;;;5055136;28;20029;-73
2021/10/27 00:31:33;;;;;;;0.00;0.00;;;5.60;53.70;;;;;;5056830;28;20059;-74
2021/10/27 00:33:59;;;;;;;0.00;0.00;;;5.50;53.70;;;;;;5057207;28;20083;-73
2021/10/27 00:36:25;;;;;;;0.00;0.00;;;5.50;53.90;;;;;;5056918;28;20445;-73
2021/10/27 00:38:51;;;;;;;0.00;0.00;;;5.50;53.90;;;;;;5057228;28;20051;-73
2021/10/27 00:41:17;;;;;;;0.00;0.00;;;5.40;53.90;;;;;;5056957;28;20489;-73
2021/10/27 00:43:43;;;;;;;0.00;0.00;;;5.40;54.00;;;;;;5055695;28;20021;-74
2021/10/27 00:46:20;;;;;;;0.00;0.00;;;5.40;54.10;;;;;;5056609;28;20029;-73
2021/10/27 00:48:47;;;;;;;0.00;0.00;;;5.40;54.20;;;;;;5056407;28;20115;-74
2021/10/27 00:51:13;;;;;;;0.00;0.00;;;5.30;54.60;;;;;;5055577;28;20476;-74
2021/10/27 00:53:39;;;;;;;0.00;0.00;;;5.30;54.80;;;;;;5072956;28;20025;-74
2021/10/27 00:56:06;;;;;;;0.00;0.00;;;5.20;54.70;;;;;;5056254;28;20108;-75
2021/10/27 00:58:32;;;;;;;0.00;0.00;;;5.20;54.80;;;;;;5055255;28;20078;-75
2021/10/27 01:00:57;;;;;;;0.00;0.00;;;5.20;54.80;;;;;;5056771;28;20021;-73
2021/10/27 01:03:23;;;;;;;0.00;0.00;;;5.20;54.90;;;;;;5056664;28;20021;-74
2021/10/27 01:05:49;;;;;;;0.00;0.00;;;5.20;54.90;;;;;;5056306;28;20487;-74
2021/10/27 01:08:15;;;;;;;0.05;0.00;;;5.20;55.00;;;;;;5056755;28;20021;-74
2021/10/27 01:10:42;;;;;;;0.00;0.00;;;5.20;55.10;;;;;;5056644;28;20032;-75
2021/10/27 01:13:07;;;;;;;0.00;0.00;;;5.10;55.00;;;;;;5055042;28;20035;-74
2021/10/27 01:15:39;;;;;;;0.00;0.00;;;5.10;55.10;;;;;;5056003;28;20021;-74
2021/10/27 01:18:05;;;;;;;0.00;0.00;;;5.10;55.20;;;;;;5056385;28;20053;-74
2021/10/27 01:20:31;;;;;;;0.00;0.00;;;5.10;55.20;;;;;;5054719;28;20039;-76
2021/10/27 01:22:56;;;;;;;0.00;0.00;;;5.10;55.30;;;;;;5055844;28;20025;-74
2021/10/27 01:25:22;;;;;;;0.00;0.00;;;5.00;55.30;;;;;;5055871;28;20029;-75
2021/10/27 01:27:48;;;;;;;0.22;0.00;;;5.00;55.40;;;;;;5055730;28;20442;-74
2021/10/27 01:30:19;;;;;;;0.00;0.00;;;4.90;55.50;;;;;;5056156;28;20092;-75
2021/10/27 01:32:46;;;;;;;0.00;0.00;;;4.90;55.60;;;;;;5055814;28;20404;-74
2021/10/27 01:35:13;;;;;;;0.00;0.00;;;4.90;56.00;;;;;;5055975;28;20083;-74
2021/10/27 01:37:41;;;;;;;0.00;0.00;;;4.90;56.60;;;;;;5056483;28;20059;-73
2021/10/27 01:40:16;;;;;;;0.00;0.00;;;4.90;55.90;;;;;;5055702;28;20108;-75
2021/10/27 01:42:42;;;;;;;0.00;0.00;;;4.90;55.90;;;;;;5056632;28;20418;-75
2021/10/27 01:45:09;;;;;;;0.00;0.00;;;4.90;55.90;;;;;;5056273;28;20108;-74
2021/10/27 01:47:35;;;;;;;0.00;0.00;;;4.80;55.90;;;;;;5055705;28;20060;-75
2021/10/27 01:50:02;;;;;;;0.00;0.00;;;4.90;56.00;;;;;;5055724;28;20040;-75
2021/10/27 01:52:27;;;;;;;0.00;0.00;;;4.80;56.00;;;;;;5055236;28;20082;-74
2021/10/27 01:54:53;;;;;;;0.00;0.00;;;4.80;56.10;;;;;;5056153;28;20433;-74
2021/10/27 01:57:19;;;;;;;0.00;0.00;;;4.80;56.20;;;;;;5055448;28;20033;-73
2021/10/27 01:59:45;;;;;;;0.00;0.00;;;4.70;56.20;;;;;;5055578;28;20381;-73
2021/10/27 02:02:11;;;;;;;0.00;0.00;;;4.80;56.30;;;;;;5055205;28;20028;-73
2021/10/27 02:04:37;;;;;;;0.00;0.00;;;4.80;56.30;;;;;;5054149;28;20029;-74
2021/10/27 02:07:03;;;;;;;0.00;0.00;;;4.80;56.30;;;;;;5055378;28;20055;-73
2021/10/27 02:09:31;;;;;;;0.00;0.00;;;4.80;56.30;;;;;;5070501;28;20484;-74
2021/10/27 02:11:56;;;;;;;0.00;0.00;;;4.80;56.40;;;;;;5055152;28;20029;-72
2021/10/27 02:14:22;;;;;;;0.00;0.00;;;4.80;56.40;;;;;;5070184;28;20029;-73
2021/10/27 02:16:48;;;;;;;0.00;0.00;;;4.80;56.40;;;;;;5054625;28;20047;-73
2021/10/27 02:19:14;;;;;;;0.00;0.00;;;4.80;56.50;;;;;;5053647;28;20032;-74
2021/10/27 02:21:40;;;;;;;0.00;0.00;;;4.80;56.50;;;;;;5054692;28;20057;-73
2021/10/27 02:24:06;;;;;;;0.00;0.00;;;4.80;56.60;;;;;;5055490;28;20029;-74
2021/10/27 02:26:31;;;;;;;0.00;0.00;;;4.80;56.50;;;;;;5070359;28;20453;-74
2021/10/27 02:28:57;;;;;;;0.00;0.00;;;4.80;56.70;;;;;;5053433;28;20059;-74
2021/10/27 02:31:23;;;;;;;0.00;0.00;;;4.80;56.60;;;;;;5055179;28;20053;-74
2021/10/27 02:33:49;;;;;;;0.00;0.00;;;4.80;56.80;;;;;;5053260;28;20033;-75
2021/10/27 02:36:15;;;;;;;0.00;0.00;;;4.80;56.80;;;;;;5070038;28;20025;-75
2021/10/27 02:38:42;;;;;;;0.00;0.00;;;4.80;56.90;;;;;;5053498;28;20060;-74
2021/10/27 02:41:08;;;;;;;0.00;0.00;;;4.80;56.90;;;;;;5054539;28;20027;-73
2021/10/27 02:43:35;;;;;;;0.00;0.00;;;4.70;56.90;;;;;;5055015;28;20365;-75
2021/10/27 02:46:00;;;;;;;0.00;0.00;;;4.80;57.10;;;;;;5054502;28;20021;-75
2021/10/27 02:48:26;;;;;;;0.00;0.00;;;4.70;57.20;;;;;;5054055;28;20037;-74
2021/10/27 02:50:52;;;;;;;0.00;0.00;;;4.70;57.30;;;;;;5054130;28;20056;-73
2021/10/27 02:53:17;;;;;;;0.00;0.00;;;4.70;57.30;;;;;;5053476;28;20055;-74
2021/10/27 02:55:43;;;;;;;0.00;0.00;;;4.70;57.40;;;;;;5054299;28;20036;-73
2021/10/27 02:58:09;;;;;;;0.00;0.00;;;4.70;57.50;;;;;;5054317;28;20021;-74
2021/10/27 03:00:35;;;;;;;0.00;0.00;;;4.70;57.50;;;;;;5054544;28;20416;-75
2021/10/27 03:03:01;;;;;;;0.00;0.00;;;4.70;57.60;;;;;;5069624;28;20029;-75
2021/10/27 03:05:27;;;;;;;0.00;0.00;;;4.70;57.80;;;;;;5054268;28;20059;-74
2021/10/27 03:07:53;;;;;;;0.00;0.00;;;4.60;57.90;;;;;;5054327;28;20032;-75
2021/10/27 03:10:19;;;;;;;0.00;0.00;;;4.60;58.10;;;;;;5053732;28;20029;-75
2021/10/27 03:12:45;;;;;;;0.00;0.00;;;4.60;58.30;;;;;;5053764;28;20036;-73
2021/10/27 03:15:11;;;;;;;0.10;0.00;;;4.50;58.20;;;;;;5054133;28;20025;-73
2021/10/27 03:17:37;;;;;;;0.00;0.00;;;4.50;58.30;;;;;;5069522;28;20029;-75
2021/10/27 03:20:04;;;;;;;0.00;0.00;;;4.50;58.30;;;;;;5054241;28;20029;-74
2021/10/27 03:22:30;;;;;;;0.00;0.00;;;4.50;58.50;;;;;;5069294;28;20108;-74
2021/10/27 03:24:56;;;;;;;0.00;0.00;;;4.50;58.60;;;;;;5054026;28;20127;-74
2021/10/27 03:27:21;;;;;;;0.00;0.00;;;4.40;58.60;;;;;;5069849;28;20021;-74
2021/10/27 03:29:47;;;;;;;0.00;0.00;;;4.40;58.70;;;;;;5053794;28;20052;-73
2021/10/27 03:32:13;;;;;;;0.00;0.00;;;4.40;58.70;;;;;;5053741;28;20025;-73
2021/10/27 03:34:39;;;;;;;0.00;0.00;;;4.40;58.90;;;;;;5069314;28;20116;-74
2021/10/27 03:37:06;;;;;;;0.10;0.00;;;4.40;58.90;;;;;;5054159;28;20025;-73
2021/10/27 03:39:32;;;;;;;0.00;0.00;;;4.40;59.00;;;;;;5054263;28;20068;-73
2021/10/27 03:41:58;;;;;;;0.00;0.00;;;4.30;59.00;;;;;;5053749;28;20083;-72
2021/10/27 03:44:23;;;;;;;0.00;0.00;;;4.40;59.10;;;;;;5053392;28;20428;-73
2021/10/27 03:46:51;;;;;;;0.00;0.00;;;4.30;59.10;;;;;;5053631;28;20100;-77
2021/10/27 03:49:17;;;;;;;0.00;0.00;;;4.30;59.10;;;;;;5053546;28;20025;-73
2021/10/27 03:51:43;;;;;;;0.00;0.00;;;4.30;59.10;;;;;;5053361;28;20025;-74
2021/10/27 03:54:09;;;;;;;0.00;0.00;;;4.30;59.20;;;;;;5053558;28;20031;-74
2021/10/27 03:56:35;;;;;;;0.28;0.00;;;4.20;59.20;;;;;;5053239;28;20388;-75
2021/10/27 03:59:02;;;;;;;0.00;0.00;;;4.20;59.30;;;;;;5053562;28;20060;-74
2021/10/27 04:01:27;;;;;;;0.00;0.00;;;4.20;59.40;;;;;;5053844;28;20372;-74
2021/10/27 04:03:53;;;;;;;0.00;0.00;;;4.20;59.60;;;;;;5055792;28;20103;-74
2021/10/27 04:06:19;;;;;;;0.00;0.00;;;4.20;60.00;;;;;;5057622;28;20362;-74
2021/10/27 04:08:45;;;;;;;0.00;0.00;;;4.20;60.10;;;;;;5073718;28;20040;-74
2021/10/27 04:11:11;;;;;;;0.00;0.00;;;4.10;60.10;;;;;;5057146;28;20037;-74
2021/10/27 04:13:37;;;;;;;0.10;0.00;;;4.10;60.20;;;;;;5057164;28;20079;-74
2021/10/27 04:16:03;;;;;;;0.10;0.03;;;4.20;60.30;;;;;;5056946;28;20024;-74
2021/10/27 04:18:29;;;;;;;0.00;0.00;;;4.10;60.30;;;;;;5056046;28;20032;-74
2021/10/27 04:20:55;;;;;;;0.00;0.00;;;4.10;60.50;;;;;;5057558;28;20127;-75
2021/10/27 04:23:21;;;;;;;0.00;0.00;;;4.10;60.60;;;;;;5055717;28;20112;-74
2021/10/27 04:25:47;;;;;;;0.22;0.10;;;4.10;60.80;;;;;;5057499;28;20438;-74
2021/10/27 04:28:12;;;;;;;0.00;0.00;;;4.10;60.80;;;;;;5057054;28;20025;-74
2021/10/27 04:30:38;;;;;;;0.00;0.00;;;4.10;60.90;;;;;;5056836;28;20040;-74
2021/10/27 04:33:13;;;;;;;0.00;0.00;;;4.10;60.90;;;;;;5056713;28;20028;-74
2021/10/27 04:35:39;;;;;;;0.00;0.00;;;4.10;61.20;;;;;;5056995;28;20079;-75
2021/10/27 04:38:05;;;;;;;0.00;0.00;;;4.10;61.20;;;;;;5056877;28;20033;-74
2021/10/27 04:40:31;;;;;;;0.00;0.00;;;4.20;61.50;;;;;;5055749;28;20357;-74
2021/10/27 04:42:56;;;;;;;0.00;0.00;;;4.20;61.80;;;;;;5055579;28;20033;-74
2021/10/27 04:45:22;;;;;;;0.00;0.00;;;4.20;61.80;;;;;;5055667;28;20035;-74
2021/10/27 04:47:48;;;;;;;0.00;0.00;;;4.30;61.90;;;;;;5057455;28;20032;-74
2021/10/27 04:50:15;;;;;;;0.00;0.00;;;4.30;62.00;;;;;;5056290;28;20068;-74
2021/10/27 04:52:41;;;;;;;0.00;0.00;;;4.40;62.10;;;;;;5056378;28;20497;-74
2021/10/27 04:55:07;;;;;;;0.00;0.00;;;4.40;62.10;;;;;;5056418;28;20037;-74
2021/10/27 04:57:32;;;;;;;0.00;0.00;;;4.40;62.30;;;;;;5055274;28;20032;-74
2021/10/27 04:59:58;;;;;;;0.10;0.10;;;4.50;62.40;;;;;;5056395;28;20174;-74
2021/10/27 05:02:24;;;;;;;0.10;0.00;;;4.50;62.30;;;;;;5056719;28;20021;-74
2021/10/27 05:04:51;;;;;;;0.00;0.00;;;4.50;62.50;;;;;;5056424;28;20021;-74
2021/10/27 05:07:18;;;;;;;0.00;0.00;;;4.60;62.60;;;;;;5056326;28;20024;-74
2021/10/27 05:09:45;;;;;;;0.00;0.00;;;4.60;62.80;;;;;;5072309;28;20032;-73
2021/10/27 05:12:11;;;;;;;0.00;0.00;;;4.60;62.80;;;;;;5056716;28;20032;-74
2021/10/27 05:14:41;;;;;;;0.00;0.00;;;4.70;62.80;;;;;;5055950;28;20029;-74
2021/10/27 05:17:10;;;;;;;0.00;0.00;;;4.70;62.80;;;;;;5056668;28;20132;-75
2021/10/27 05:19:40;;;;;;;0.00;0.00;;;4.70;62.80;;;;;;5056077;28;20064;-75
2021/10/27 05:22:06;;;;;;;0.00;0.00;;;4.80;62.80;;;;;;5055981;28;20025;-74
2021/10/27 05:24:32;;;;;;;0.00;0.00;;;4.80;62.80;;;;;;5056516;28;20399;-74
2021/10/27 05:26:58;;;;;;;0.00;0.00;;;4.90;62.80;;;;;;5055745;28;20021;-74
2021/10/27 05:29:24;;;;;;;0.00;0.00;;;4.90;62.80;;;;;;5055809;28;20075;-74
2021/10/27 05:31:50;;;;;;;0.00;0.00;;;5.00;62.90;;;;;;5056271;28;20112;-74
2021/10/27 05:34:16;;;;;;;0.00;0.00;;;5.00;62.90;;;;;;5055551;28;20049;-74
2021/10/27 05:36:42;;;;;;;0.00;0.00;;;5.10;63.00;;;;;;5055548;28;20044;-74
2021/10/27 05:39:09;;;;;;;0.00;0.00;;;5.10;63.00;;;;;;5055378;28;20389;-73
2021/10/27 05:41:35;;;;;;;0.00;0.00;;;5.20;63.10;;;;;;5054946;28;20062;-74
2021/10/27 05:44:02;;;;;;;0.00;0.00;;;5.30;63.00;;;;;;5055616;28;20473;-73
2021/10/27 05:46:28;;;;;;;0.00;0.00;;;5.30;63.00;;;;;;5071255;28;20392;-74
2021/10/27 05:49:41;;;;;;;0.00;0.00;;;5.40;63.10;;;;;;5055439;28;20453;-74
2021/10/27 05:51:49;;;;;;;0.00;0.00;;;5.40;63.20;;;;;;5050179;28;20128;-74
2021/10/27 05:56:59;;;;;;;0.00;0.00;;;5.60;63.30;;;;;;5055470;28;20431;-75
2021/10/27 05:59:25;;;;;;;0.00;0.00;;;5.60;63.30;;;;;;5053681;28;20029;-74
2021/10/27 06:01:51;;;;;;;0.00;0.00;;;5.60;63.40;;;;;;5054922;28;20036;-73
2021/10/27 06:04:17;;;;;;;0.08;0.00;;;5.70;63.50;;;;;;5054915;28;20100;-73
2021/10/27 06:06:46;;;;;;;0.08;0.08;;;5.70;63.40;;;;;;5054247;28;20028;-75
2021/10/27 06:09:16;;;;;;;0.00;0.00;;;5.80;63.40;;;;;;5053824;28;20512;-75
2021/10/27 06:11:43;;;;;;;0.00;0.00;;;5.80;63.30;;;;;;5055342;28;20029;-75
2021/10/27 06:14:09;;;;;;;0.00;0.00;;;5.80;63.30;;;;;;5055025;28;20029;-75
2021/10/27 06:16:36;;;;;;;0.00;0.00;;;5.80;63.30;;;;;;5055183;28;20021;-74
2021/10/27 06:19:01;;;;;;;0.00;0.00;;;5.90;63.40;;;;;;5054879;28;20029;-73
2021/10/27 06:21:27;;;;;;;0.00;0.00;;;6.00;63.40;;;;;;5070665;28;20472;-75
2021/10/27 06:23:53;;;;;;;0.00;0.00;;;6.00;63.70;;;;;;5055648;28;20043;-76
2021/10/27 06:26:23;;;;;;;0.00;0.00;;;6.00;63.80;;;;;;5053594;28;20078;-76
2021/10/27 06:29:04;;;;;;;0.20;0.00;;;6.00;63.90;;;;;;5054881;28;20055;-74
2021/10/27 06:34:16;;;;;;;0.00;0.00;;;6.20;63.90;;;;;;5054576;28;20049;-75
2021/10/27 06:47:30;;;;;;;0.00;0.00;;;6.70;63.70;;;;;;5055268;28;20036;-74
2021/10/27 06:49:56;;;;;;;0.35;0.00;;;6.90;63.80;;;;;;5055655;28;20035;-73
2021/10/27 06:52:23;;;;;;;0.00;0.00;;;6.90;63.50;;;;;;5054386;28;20421;-76
2021/10/27 06:54:52;;;;;;;0.00;0.00;;;7.00;63.60;;;;;;5054029;28;20025;-76
2021/10/27 06:57:23;;;;;;;0.00;0.00;;;7.00;63.60;;;;;;5053997;28;20477;-73
2021/10/27 06:59:51;;;;;;;0.10;0.00;;;7.10;63.80;;;;;;5069558;28;20036;-75
2021/10/27 07:05:17;;;;;;;0.00;0.00;;;7.20;63.70;;;;;;5054266;28;20524;-74
2021/10/27 07:15:58;;;;;;;0.00;0.00;;;7.70;63.20;;;;;;5054322;28;20036;-75
2021/10/27 07:18:25;;;;;;;0.00;0.00;;;7.70;63.10;;;;;;5054516;28;20093;-76
2021/10/27 07:20:51;;;;;;;0.00;0.00;;;7.80;63.10;;;;;;5054006;28;20033;-75
2021/10/27 07:23:16;;;;;;;0.00;0.00;;;7.80;63.10;;;;;;5054305;28;20049;-76
2021/10/27 07:25:44;;;;;;;0.00;0.00;;;7.90;63.20;;;;;;5053004;28;20496;-75
2021/10/27 07:28:10;;;;;;;0.00;0.00;;;7.90;63.20;;;;;;5052299;28;20032;-76
2021/10/27 07:30:35;;;;;;;0.00;0.00;;;8.00;63.10;;;;;;5054085;28;20037;-75
2021/10/27 07:33:01;;;;;;;0.00;0.00;;;8.10;63.10;;;;;;5069433;28;20025;-75
2021/10/27 07:35:43;;;;;;;0.00;0.00;;;8.20;62.90;;;;;;5053803;28;20029;-76
2021/10/27 07:40:54;;;;;;;0.00;0.00;;;8.30;62.80;;;;;;5053753;28;20087;-75
2021/10/27 07:43:26;;;;;;;0.00;0.00;;;8.40;62.70;;;;;;5053415;28;20028;-76
2021/10/27 07:45:53;;;;;;;0.00;0.00;;;8.50;62.60;;;;;;5053389;28;20059;-76
2021/10/27 07:48:19;;;;;;;0.00;0.00;;;8.60;62.40;;;;;;5053801;28;20481;-76
2021/10/27 07:50:45;;;;;;;0.00;0.00;;;8.70;62.40;;;;;;5053808;28;20469;-75
2021/10/27 07:53:13;;;;;;;0.00;0.00;;;8.80;62.20;;;;;;5053791;28;20452;-75
2021/10/27 07:55:44;;;;;;;0.00;0.00;;;8.90;62.10;;;;;;5053457;28;20025;-75
2021/10/27 07:58:12;;;;;;;0.00;0.00;;;9.00;61.90;;;;;;5053814;28;20385;-75
2021/10/27 08:00:39;;;;;;;0.00;0.00;;;9.10;61.80;;;;;;5052075;28;20465;-76
2021/10/27 08:03:05;;;;;;;0.00;0.00;;;9.10;61.60;;;;;;5053347;28;20037;-76
2021/10/27 08:05:41;;;;;;;0.00;0.00;;;9.10;61.60;;;;;;5068874;28;20025;-75
2021/10/27 08:08:08;;;;;;;0.00;0.00;;;9.20;61.50;;;;;;5053057;28;20124;-75
2021/10/27 08:10:35;;;;;;;0.00;0.00;;;9.20;61.50;;;;;;5053162;28;20058;-74
2021/10/27 08:13:01;;;;;;;0.00;0.00;;;9.20;61.60;;;;;;5068706;28;20116;-75
2021/10/27 08:15:28;;;;;;;0.00;0.00;;;9.20;61.80;;;;;;5053205;28;20163;-75
2021/10/27 08:17:54;;;;;;;0.00;0.00;;;9.20;61.80;;;;;;5053752;28;20112;-75
2021/10/27 08:20:24;;;;;;;0.00;0.00;;;9.20;61.90;;;;;;5052332;28;20041;-74
2021/10/27 08:22:58;;;;;;;0.00;0.00;;;9.30;61.90;;;;;;5053436;28;20485;-75
2021/10/27 08:25:30;;;;;;;0.00;0.00;;;9.40;61.90;;;;;;5052514;28;20112;-75
2021/10/27 08:28:03;;;;;;;0.00;0.00;;;9.50;61.70;;;;;;5053135;28;20025;-74
2021/10/27 08:30:36;;;;;;;0.00;0.00;;;9.60;61.60;;;;;;5053129;28;20484;-74
2021/10/27 08:33:06;;;;;;;0.00;0.00;;;9.80;61.50;;;;;;5053346;28;20382;-75
2021/10/27 08:35:34;;;;;;;0.00;0.00;;;10.00;61.10;;;;;;5053363;28;20021;-76
2021/10/27 08:38:01;;;;;;;0.00;0.00;;;10.10;60.80;;;;;;5052979;28;20028;-75
2021/10/27 08:40:27;;;;;;;0.00;0.00;;;10.20;60.60;;;;;;5053049;28;20029;-74
2021/10/27 08:42:55;;;;;;;0.00;0.00;;;10.20;60.50;;;;;;5053196;28;20100;-74
2021/10/27 08:45:21;;;;;;;0.00;0.00;;;10.30;60.50;;;;;;5053054;28;20033;-75
2021/10/27 08:47:50;;;;;;;0.00;0.00;;;10.50;60.40;;;;;;5053057;28;20381;-74
2021/10/27 08:50:19;;;;;;;0.00;0.00;;;10.70;60.10;;;;;;5055186;28;20136;-75
2021/10/27 08:52:44;;;;;;;0.00;0.00;;;10.70;59.70;;;;;;5056591;28;20033;-74
2021/10/27 08:55:13;;;;;;;0.00;0.00;;;10.80;59.60;;;;;;5056843;28;20510;-74
2021/10/27 08:57:44;;;;;;;0.00;0.00;;;10.80;59.40;;;;;;5056334;28;20060;-75
2021/10/27 10:06:27;;;;;;;0.00;0.00;;;23.50;39.30;;;;;;5055525;28;20116;-75
2021/10/27 10:08:55;;;;;;;0.00;0.00;;;23.60;39.20;;;;;;5053831;28;20040;-75
2021/10/27 10:11:22;;;;;;;0.00;0.00;;;23.70;38.30;;;;;;5054867;28;20028;-75
2021/10/27 10:13:54;;;;;;;0.00;0.00;;;23.70;38.00;;;;;;5055001;28;20382;-75
2021/10/27 10:16:20;;;;;;;0.00;0.00;;;23.90;38.00;;;;;;5070379;28;20025;-75
2021/10/27 10:18:48;;;;;;;0.00;0.00;;;24.50;37.80;;;;;;5054377;28;20029;-75
2021/10/27 10:21:18;;;;;;;0.00;0.00;;;24.90;37.00;;;;;;5054736;28;20036;-75
2021/10/27 10:23:44;;;;;;;0.00;0.00;;;25.10;36.50;;;;;;5054552;28;20033;-78
2021/10/27 10:26:13;;;;;;;0.00;0.00;;;25.30;36.10;;;;;;5055474;28;20468;-76
2021/10/27 10:28:41;;;;;;;0.00;0.00;;;25.60;36.00;;;;;;5054623;28;20053;-75
2021/10/27 10:31:08;;;;;;;0.00;0.00;;;26.00;35.60;;;;;;5069951;28;20025;-77
2021/10/27 10:33:42;;;;;;;0.00;0.00;;;26.30;35.30;;;;;;5070080;28;20108;-77
2021/10/27 10:36:22;;;;;;;0.00;0.00;;;26.50;34.90;;;;;;5054706;28;20465;-80
2021/10/27 11:45:05;;;;;;;0.00;0.00;;;27.10;33.50;;;;;;5052499;28;20102;-74
2021/10/27 11:47:36;;;;;;;0.00;0.00;;;27.20;33.30;;;;;;5053301;28;20134;-74
2021/10/27 11:50:07;;;;;;;0.00;0.00;;;27.10;33.50;;;;;;5053352;28;20069;-74
2021/10/27 11:52:38;;;;;;;0.00;0.00;;;27.30;33.50;;;;;;5053047;28;20094;-74
2021/10/27 11:55:08;;;;;;;0.00;0.00;;;27.50;33.20;;;;;;5053405;28;20029;-74
2021/10/27 11:57:36;;;;;;;0.00;0.00;;;27.60;33.00;;;;;;5053607;28;20108;-74
2021/10/27 12:00:07;;;;;;;0.00;0.00;;;27.70;33.00;;;;;;5052472;28;20420;-75
2021/10/27 12:03:01;;;;;;;0.00;0.00;;;27.90;32.90;;;;;;5053355;28;20025;-75
2021/10/27 12:05:34;;;;;;;0.00;0.00;;;28.10;32.30;;;;;;5052130;28;20036;-74
2021/10/27 12:08:10;;;;;;;;;;;28.20;32.50;;;;;;5053364;28;20148;-75
2021/10/27 12:10:45;;;;;;;0.00;0.00;;;28.40;32.90;;;;;;5053355;28;20272;-75
2021/10/27 12:13:18;;;;;;;0.00;0.00;;;28.50;32.10;;;;;;5052323;28;20056;-74
2021/10/27 12:16:14;;;;;;;0.00;0.00;;;28.40;31.90;;;;;;5053478;28;20027;-75
2021/10/27 12:18:35;;;;;;;0.00;0.00;;;28.30;31.90;;;;;;5051884;28;20381;-75
2021/10/27 12:21:02;;;;;;;0.00;0.00;;;28.00;32.50;;;;;;5053189;28;20037;-74
2021/10/27 12:23:29;;;;;;;0.00;0.00;;;27.80;32.00;;;;;;5051930;28;20033;-74
2021/10/27 12:26:11;;;;;;;0.00;0.00;;;27.80;32.00;;;;;;5057010;28;20032;-74
2021/10/27 12:28:37;;;;;;;0.00;0.00;;;27.50;32.10;;;;;;5057110;28;20037;-76
2021/10/27 12:31:22;;;;;;;0.00;0.00;;;26.90;32.50;;;;;;5056702;28;20033;-76
2021/10/27 12:33:51;;;;;;;0.00;0.00;;;26.90;32.90;;;;;;5057057;28;20078;-74
2021/10/27 12:36:27;;;;;;;0.00;0.00;;;27.00;32.90;;;;;;5056998;28;20445;-79
2021/10/27 12:39:28;;;;;;;0.00;0.00;;;26.70;32.90;;;;;;5072198;28;20380;-75
2021/10/27 12:42:09;;;;;;;0.30;0.00;;;25.70;33.60;;;;;;5050245;28;20039;-74
2021/10/27 12:44:48;;;;;;;0.00;0.00;;;25.60;33.90;;;;;;5072259;28;20122;-75
2021/10/27 12:47:16;;;;;;;0.00;0.00;;;25.30;34.00;;;;;;5055575;28;20468;-76
2021/10/27 12:49:45;;;;;;;0.00;0.00;;;24.80;34.50;;;;;;5057144;28;20132;-76
2021/10/27 12:52:27;;;;;;;0.00;0.00;;;24.50;35.20;;;;;;5056581;28;20029;-76
2021/10/27 12:55:11;;;;;;;0.00;0.00;;;24.70;35.30;;;;;;5056598;28;20021;-77
2021/10/27 12:57:56;;;;;;;0.00;0.00;;;25.10;34.60;;;;;;5057023;28;20025;-77
2021/10/27 13:00:47;;;;;;;0.00;0.00;;;25.20;34.50;;;;;;5056304;28;20339;-77
2021/10/27 13:06:13;;;;;;;0.00;0.00;;;24.00;35.30;;;;;;5056885;28;20032;-76
2021/10/27 13:13:56;;;;;;;0.00;0.00;;;24.20;35.70;;;;;;5056557;28;20457;-76
2021/10/27 13:30:06;;;;;;;;;;;25.50;34.50;;;;;;5056431;28;20051;-76
2021/10/27 13:32:37;;;;;;;0.00;0.00;;;25.60;34.50;;;;;;5055052;28;20003;-76
2021/10/27 13:35:04;;;;;;;0.00;0.00;;;25.50;33.90;;;;;;5056378;28;20074;-77
2021/10/27 13:37:31;;;;;;;0.00;0.00;;;25.30;34.00;;;;;;5054473;28;20428;-76
2021/10/27 13:39:58;;;;;;;0.00;0.00;;;25.00;34.00;;;;;;5055960;28;20454;-77
2021/10/27 13:42:29;;;;;;;0.00;0.00;;;24.70;34.00;;;;;;5055552;28;20021;-74
2021/10/27 13:58:44;;;;;;;0.00;0.00;;;22.50;36.40;;;;;;5055270;28;20112;-75
2021/10/27 14:07:11;;;;;;;0.00;0.00;;;22.20;36.80;;;;;;5013445;28;19905;-76
2021/10/27 14:10:03;;;;;;;0.00;0.00;;;21.80;37.00;;;;;;5050726;28;20041;-76
2021/10/27 14:16:03;;;;;;;0.00;0.00;;;20.40;38.80;;;;;;5055384;28;20519;-76
2021/10/27 14:40:07;;;;;;;0.00;0.00;;;16.60;45.30;;;;;;5054992;28;20385;-75
2021/10/27 14:50:27;;;;;;;0.00;0.00;;;15.90;46.20;;;;;;5054457;28;19916;-75
2021/10/27 14:51:18;;;;;;;0.00;0.00;;;15.60;46.80;;;;;;5054226;28;20083;-74
2021/10/27 15:15:26;;;;;;;0.00;0.00;;;15.10;48.70;;;;;;5054328;28;20082;-75
2021/10/27 15:21:08;;;;;;;0.00;0.00;;;14.70;50.70;;;;;;5043648;28;20488;-74
2021/10/27 15:23:45;;;;;;;0.00;0.00;;;14.70;50.20;;;;;;5053558;28;20393;-75
2021/10/27 15:40:17;;;;;;;0.00;0.00;;;14.60;50.10;;;;;;5032557;28;20064;-75
2021/10/27 15:53:19;;;;;;;0.00;0.00;;;14.50;50.30;;;;;;5053673;28;20377;-75
2021/10/27 15:55:45;;;;;;;0.00;0.00;;;14.40;50.40;;;;;;5053496;28;20025;-74
2021/10/27 15:58:11;;;;;;;0.00;0.00;;;14.30;50.60;;;;;;5052808;28;20123;-76
2021/10/27 16:00:39;;;;;;;0.00;0.00;;;14.30;50.80;;;;;;5056201;28;20025;-75
2021/10/27 16:03:07;;;;;;;0.00;0.00;;;14.20;50.90;;;;;;5057107;28;20029;-75
2021/10/27 16:05:38;;;;;;;0.00;0.00;;;14.20;51.10;;;;;;5057373;28;20033;-76
2021/10/27 16:08:06;;;;;;;0.00;0.00;;;14.10;51.20;;;;;;5057348;28;20036;-74
2021/10/27 16:10:34;;;;;;;0.00;0.00;;;14.10;51.30;;;;;;5057643;28;20041;-76
2021/10/27 16:12:59;;;;;;;0.00;0.00;;;14.10;51.40;;;;;;5057094;28;20389;-76
2021/10/27 16:15:36;;;;;;;0.05;0.00;;;14.10;51.50;;;;;;5057174;28;20025;-77
2021/10/27 16:18:04;;;;;;;0.08;0.08;;;14.10;51.50;;;;;;5057185;28;20033;-77
2021/10/27 16:20:29;;;;;;;0.00;0.00;;;14.10;51.60;;;;;;5057061;28;20082;-76
2021/10/27 16:22:55;;;;;;;0.00;0.00;;;14.10;51.70;;;;;;5057615;28;20403;-76
2021/10/27 16:25:21;;;;;;;0.00;0.00;;;14.00;51.70;;;;;;5057885;28;20032;-77
2021/10/27 16:27:48;;;;;;;0.00;0.00;;;14.00;51.80;;;;;;5056126;28;20108;-75
2021/10/27 16:30:15;;;;;;;0.08;0.08;;;14.00;52.00;;;;;;5057168;28;20025;-73
2021/10/27 16:32:41;;;;;;;0.00;0.00;;;13.90;52.00;;;;;;5056359;28;20142;-75
2021/10/27 16:35:07;;;;;;;0.00;0.00;;;13.90;52.10;;;;;;5056968;28;20025;-75
2021/10/27 16:37:34;;;;;;;0.00;0.00;;;13.90;52.10;;;;;;5057324;28;20082;-75
2021/10/27 16:40:00;;;;;;;0.00;0.00;;;13.80;52.20;;;;;;5057139;28;20108;-75
2021/10/27 16:42:27;;;;;;;0.00;0.00;;;13.80;52.10;;;;;;5056655;28;20033;-77
2021/10/27 16:44:54;;;;;;;0.00;0.00;;;13.80;52.20;;;;;;5072121;28;20097;-76
2021/10/27 16:47:19;;;;;;;0.00;0.00;;;13.80;52.30;;;;;;5055525;28;20036;-75
2021/10/27 16:49:45;;;;;;;0.00;0.00;;;13.70;52.30;;;;;;5056596;28;20036;-75
2021/10/27 16:52:11;;;;;;;0.00;0.00;;;13.70;52.40;;;;;;5056721;28;20036;-75
2021/10/27 16:54:37;;;;;;;0.00;0.00;;;13.70;52.40;;;;;;5056420;28;20025;-77
2021/10/27 16:57:03;;;;;;;0.00;0.00;;;13.70;52.40;;;;;;5057616;28;20025;-75
2021/10/27 16:59:28;;;;;;;0.00;0.00;;;13.70;52.40;;;;;;5073027;28;20064;-75
2021/10/27 17:01:54;;;;;;;0.00;0.00;;;13.80;52.40;;;;;;5056434;28;20075;-75
2021/10/27 17:04:21;;;;;;;0.10;0.00;;;13.80;52.40;;;;;;5055320;28;20472;-76
2021/10/27 17:06:48;;;;;;;0.00;0.00;;;13.80;52.40;;;;;;5056845;28;20052;-76
2021/10/27 17:09:13;;;;;;;0.00;0.00;;;13.90;52.50;;;;;;5071739;28;20551;-76
2021/10/27 17:11:40;;;;;;;0.00;0.00;;;13.90;52.40;;;;;;5053770;28;20163;-76
2021/10/27 17:14:06;;;;;;;0.00;0.00;;;13.90;52.40;;;;;;5056338;28;20029;-75
2021/10/27 17:16:33;;;;;;;0.00;0.00;;;13.90;52.30;;;;;;5055873;28;20031;-75
2021/10/27 17:18:59;;;;;;;0.00;0.00;;;14.00;52.30;;;;;;5072291;28;20442;-75
2021/10/27 17:21:25;;;;;;;0.00;0.00;;;14.00;52.30;;;;;;5055967;28;20032;-75
2021/10/27 17:23:54;;;;;;;0.00;0.00;;;14.00;52.30;;;;;;5049441;28;20041;-77
2021/10/27 17:26:20;;;;;;;0.00;0.00;;;14.00;52.30;;;;;;5035999;28;20033;-74
2021/10/27 17:28:46;;;;;;;0.00;0.00;;;14.00;52.50;;;;;;5036504;28;20117;-76
2021/10/27 17:31:15;;;;;;;0.00;0.00;;;14.00;52.70;;;;;;5035778;28;20041;-75
2021/10/27 17:33:40;;;;;;;0.00;0.00;;;13.90;52.90;;;;;;5034705;28;20026;-76
2021/10/27 17:36:10;;;;;;;0.00;0.00;;;13.80;53.20;;;;;;5036089;28;20029;-77
2021/10/27 17:38:38;;;;;;;0.00;0.00;;;13.70;53.50;;;;;;5036510;28;20029;-76
2021/10/27 17:41:06;;;;;;;0.00;0.00;;;13.60;53.70;;;;;;5036730;28;20033;-75
2021/10/27 17:43:35;;;;;;;0.00;0.00;;;13.50;54.10;;;;;;5036152;28;20036;-77